createdAt,value
2023-04-02T00:01:40.154Z,96996.69
2023-04-02T00:04:14.210Z,96999.63
2023-04-02T00:06:50.137Z,96999.03
2023-04-02T00:09:22.105Z,97002.34
2023-04-02T00:11:49.678Z,97002.34
2023-04-02T00:14:31.782Z,96999.41
2023-04-02T00:16:58.906Z,97005.38
2023-04-02T00:19:37.592Z,97003.75
2023-04-02T00:22:06.375Z,97007.72
2023-04-02T00:24:32.850Z,97004.63
2023-04-02T00:26:59.370Z,97012.59
2023-04-02T00:29:25.848Z,97006.69
2023-04-02T00:31:53.014Z,97010.44
2023-04-02T00:34:31.428Z,97003.47
2023-04-02T00:36:57.887Z,97019.75
2023-04-02T00:39:29.110Z,97020.91
2023-04-02T00:42:05.755Z,97011.81
2023-04-02T00:44:44.739Z,97007.53
2023-04-02T00:47:21.344Z,97022.38
2023-04-02T00:49:48.788Z,97023.03
2023-04-02T00:52:17.364Z,97016.28
2023-04-02T00:54:48.176Z,97022.22
2023-04-02T00:57:17.846Z,97020.03
2023-04-02T01:00:19.820Z,97024.06
2023-04-02T01:03:13.011Z,97030.44
2023-04-02T01:05:39.826Z,97025.13
2023-04-02T01:08:12.349Z,97028.75
2023-04-02T01:10:47.937Z,97041.69
2023-04-02T01:13:25.512Z,97037.41
2023-04-02T01:16:16.038Z,97042.06
2023-04-02T01:18:58.211Z,97038.06
2023-04-02T01:21:43.955Z,97049.47
2023-04-02T01:24:13.689Z,97039.03
2023-04-02T01:26:44.586Z,97045.00
2023-04-02T01:29:19.475Z,97041.34
2023-04-02T01:31:46.199Z,97047.69
2023-04-02T01:34:15.386Z,97046.97
2023-04-02T01:36:56.987Z,97051.31
2023-04-02T01:39:42.635Z,97048.66
2023-04-02T01:42:18.349Z,97056.25
2023-04-02T01:44:51.382Z,97043.56
2023-04-02T01:47:22.557Z,97061.22
2023-04-02T01:49:49.046Z,97051.94
2023-04-02T01:52:25.572Z,97061.22
2023-04-02T01:54:52.393Z,97062.53
2023-04-02T01:57:18.954Z,97065.84
2023-04-02T01:59:45.969Z,97063.69
2023-04-02T02:02:13.364Z,97056.06
2023-04-02T02:04:39.920Z,97066.16
2023-04-02T02:07:10.332Z,97061.31
2023-04-02T02:09:37.100Z,97070.09
2023-04-02T02:12:04.277Z,97066.47
2023-04-02T02:14:31.083Z,97067.50
2023-04-02T02:17:02.111Z,97073.28
2023-04-02T02:19:46.954Z,97070.81
2023-04-02T02:22:29.122Z,97072.63
2023-04-02T02:24:56.647Z,97075.28
2023-04-02T02:27:23.011Z,97076.44
2023-04-02T02:29:51.506Z,97077.25
2023-04-02T02:32:18.253Z,97079.75
2023-04-02T02:34:48.323Z,97082.34
2023-04-02T02:37:17.649Z,97079.38
2023-04-02T02:39:44.951Z,97088.97
2023-04-02T02:42:37.250Z,97084.03
2023-04-02T02:45:06.297Z,97096.59
2023-04-02T02:47:34.654Z,97092.63
2023-04-02T02:50:03.590Z,97091.50
2023-04-02T02:52:35.771Z,97103.56
2023-04-02T02:55:05.218Z,97100.94
2023-04-02T02:57:39.820Z,97097.28
2023-04-02T03:00:09.580Z,97103.72
2023-04-02T03:02:36.869Z,97108.84
2023-04-02T03:05:04.897Z,97115.47
2023-04-02T03:07:31.352Z,97118.44
2023-04-02T03:10:00.555Z,97118.63
2023-04-02T03:12:51.421Z,97117.66
2023-04-02T03:16:02.602Z,97123.78
2023-04-02T03:18:31.638Z,97127.09
2023-04-02T03:21:01.327Z,97121.13
2023-04-02T03:23:35.693Z,97131.72
2023-04-02T03:26:12.260Z,97135.00
2023-04-02T03:28:44.049Z,97139.00
2023-04-02T03:31:15.862Z,97132.38
2023-04-02T03:33:44.513Z,97144.28
2023-04-02T03:36:22.686Z,97143.66
2023-04-02T03:38:57.453Z,97138.38
2023-04-02T03:41:30.851Z,97134.88
2023-04-02T03:43:59.229Z,97143.59
2023-04-02T03:46:42.364Z,97140.19
2023-04-02T03:49:17.044Z,97150.28
2023-04-02T03:51:57.911Z,97147.97
2023-04-02T03:54:24.388Z,97148.28
2023-04-02T03:56:50.856Z,97156.09
2023-04-02T03:59:23.269Z,97153.63
2023-04-02T04:01:56.855Z,97159.91
2023-04-02T04:04:23.395Z,97157.59
2023-04-02T04:06:50.610Z,97162.88
2023-04-02T04:09:35.434Z,97168.88
2023-04-02T04:12:29.813Z,97173.16
2023-04-02T04:15:07.250Z,97178.00
2023-04-02T04:17:42.451Z,97171.50
2023-04-02T04:20:21.920Z,97180.09
2023-04-02T04:22:49.883Z,97195.03
2023-04-02T04:25:29.441Z,97189.19
2023-04-02T04:28:05.481Z,97189.06
2023-04-02T04:31:00.110Z,97191.22
2023-04-02T04:33:34.500Z,97193.69
2023-04-02T04:36:01.965Z,97201.66
2023-04-02T04:38:39.451Z,97212.22
2023-04-02T04:41:14.510Z,97210.75
2023-04-02T04:43:52.742Z,97208.91
2023-04-02T04:46:31.496Z,97219.84
2023-04-02T04:49:00.181Z,97231.09
2023-04-02T04:51:35.461Z,97229.78
2023-04-02T04:54:01.949Z,97235.72
2023-04-02T04:56:29.237Z,97241.66
2023-04-02T04:59:11.702Z,97238.56
2023-04-02T05:01:42.657Z,97243.97
2023-04-02T05:04:16.903Z,97246.50
2023-04-02T05:06:45.531Z,97247.97
2023-04-02T05:09:28.443Z,97252.25
2023-04-02T05:12:16.124Z,97252.94
2023-04-02T05:14:48.512Z,97254.59
2023-04-02T05:17:14.863Z,97261.22
2023-04-02T05:19:51.796Z,97258.56
2023-04-02T05:22:30.047Z,97265.69
2023-04-02T05:25:20.844Z,97259.22
2023-04-02T05:27:52.433Z,97267.16
2023-04-02T05:30:24.797Z,97271.81
2023-04-02T05:33:00.606Z,97279.06
2023-04-02T05:35:32.094Z,97275.78
2023-04-02T05:37:59.160Z,97273.47
2023-04-02T05:40:40.857Z,97288.00
2023-04-02T05:43:10.928Z,97284.38
2023-04-02T05:45:38.989Z,97290.00
2023-04-02T05:48:30.833Z,97295.63
2023-04-02T05:50:58.771Z,97287.22
2023-04-02T05:53:30.548Z,97298.59
2023-04-02T05:56:04.924Z,97291.84
2023-04-02T05:58:37.518Z,97300.91
2023-04-02T06:01:12.748Z,97301.59
2023-04-02T06:04:02.362Z,97296.13
2023-04-02T06:06:44.960Z,97308.88
2023-04-02T06:09:49.485Z,97307.56
2023-04-02T06:12:27.703Z,97311.22
2023-04-02T06:14:54.192Z,97312.19
2023-04-02T06:17:20.856Z,97315.53
2023-04-02T06:19:47.906Z,97313.88
2023-04-02T06:22:35.442Z,97318.19
2023-04-02T06:25:05.723Z,97325.13
2023-04-02T06:27:32.247Z,97325.78
2023-04-02T06:30:01.079Z,97320.31
2023-04-02T06:32:27.595Z,97336.38
2023-04-02T06:34:54.095Z,97340.19
2023-04-02T06:37:38.616Z,97341.34
2023-04-02T06:40:05.837Z,97341.19
2023-04-02T06:42:37.252Z,97344.66
2023-04-02T06:45:04.167Z,97352.94
2023-04-02T06:47:38.632Z,97351.97
2023-04-02T06:50:07.123Z,97353.59
2023-04-02T06:53:00.578Z,97359.91
2023-04-02T06:55:49.125Z,97356.56
2023-04-02T06:58:16.480Z,97371.00
2023-04-02T07:00:44.315Z,97369.50
2023-04-02T07:03:21.289Z,97366.84
2023-04-02T07:05:47.826Z,97372.31
2023-04-02T07:08:14.390Z,97368.31
2023-04-02T07:10:41.056Z,97373.47
2023-04-02T07:13:08.275Z,97371.31
2023-04-02T07:15:34.913Z,97374.75
2023-04-02T07:18:01.875Z,97374.91
2023-04-02T07:20:30.415Z,97373.88
2023-04-02T07:22:57.163Z,97384.16
2023-04-02T07:25:24.412Z,97382.56
2023-04-02T07:27:52.046Z,97383.56
2023-04-02T07:30:18.666Z,97390.91
2023-04-02T07:32:45.490Z,97391.91
2023-04-02T07:35:12.047Z,97400.91
2023-04-02T07:37:38.643Z,97403.19
2023-04-02T07:40:09.886Z,97413.47
2023-04-02T07:42:36.364Z,97407.22
2023-04-02T07:45:05.767Z,97408.00
2023-04-02T07:47:32.737Z,97414.28
2023-04-02T07:49:59.219Z,97417.16
2023-04-02T07:52:25.717Z,97420.47
2023-04-02T07:54:52.286Z,97429.72
2023-04-02T07:57:18.924Z,97427.75
2023-04-02T07:59:47.268Z,97433.38
2023-04-02T08:02:21.119Z,97439.06
2023-04-02T08:04:51.282Z,97439.38
2023-04-02T08:07:19.015Z,97434.38
2023-04-02T08:09:45.523Z,97448.63
2023-04-02T08:12:14.974Z,97446.81
2023-04-02T08:14:41.481Z,97444.91
2023-04-02T08:17:07.967Z,97454.53
2023-04-02T08:19:44.330Z,97461.00
2023-04-02T08:22:18.421Z,97464.34
2023-04-02T08:24:44.890Z,97461.38
2023-04-02T08:27:13.810Z,97466.38
2023-04-02T08:29:40.306Z,97469.19
2023-04-02T08:32:07.589Z,97470.09
2023-04-02T08:34:34.061Z,97476.84
2023-04-02T08:37:00.673Z,97471.38
2023-04-02T08:39:29.364Z,97473.44
2023-04-02T08:41:58.397Z,97485.13
2023-04-02T08:44:37.396Z,97485.00
2023-04-02T08:47:05.005Z,97496.41
2023-04-02T08:49:49.489Z,97490.97
2023-04-02T08:52:27.228Z,97488.28
2023-04-02T08:54:56.158Z,97492.16
2023-04-02T08:57:25.589Z,97500.75
2023-04-02T08:59:58.229Z,97501.06
2023-04-02T09:02:29.995Z,97509.72
2023-04-02T09:04:57.896Z,97497.09
2023-04-02T09:07:24.406Z,97506.06
2023-04-02T09:09:50.999Z,97508.22
2023-04-02T09:12:26.120Z,97505.69
2023-04-02T09:15:11.124Z,97513.47
2023-04-02T09:17:50.661Z,97519.28
2023-04-02T09:20:25.909Z,97520.88
2023-04-02T09:22:53.076Z,97524.94
2023-04-02T09:25:25.463Z,97529.44
2023-04-02T09:27:53.215Z,97529.59
2023-04-02T09:30:29.687Z,97524.94
2023-04-02T09:32:58.032Z,97531.91
2023-04-02T09:35:27.080Z,97535.72
2023-04-02T09:38:33.011Z,97544.50
2023-04-02T09:41:19.390Z,97543.84
2023-04-02T09:43:45.890Z,97545.81
2023-04-02T09:46:23.278Z,97545.59
2023-04-02T09:48:53.665Z,97544.59
2023-04-02T09:51:22.024Z,97550.91
2023-04-02T09:53:50.031Z,97555.03
2023-04-02T09:56:23.564Z,97554.94
2023-04-02T09:59:03.456Z,97565.31
2023-04-02T10:01:32.294Z,97559.78
2023-04-02T10:03:59.944Z,97567.91
2023-04-02T10:06:28.252Z,97569.94
2023-04-02T10:08:54.781Z,97570.19
2023-04-02T10:11:43.638Z,97568.69
2023-04-02T10:14:23.400Z,97586.66
2023-04-02T10:16:52.383Z,97582.34
2023-04-02T10:19:26.538Z,97585.63
2023-04-02T10:21:54.389Z,97597.91
2023-04-02T10:24:21.083Z,97598.63
2023-04-02T10:26:59.698Z,97600.63
2023-04-02T10:29:35.721Z,97603.63
2023-04-02T10:32:11.246Z,97615.88
2023-04-02T10:34:52.795Z,97622.00
2023-04-02T10:37:41.424Z,97608.56
2023-04-02T10:40:23.768Z,97621.81
2023-04-02T10:43:03.317Z,97619.81
2023-04-02T10:45:35.494Z,97626.13
2023-04-02T10:48:30.606Z,97629.47
2023-04-02T10:51:16.669Z,97641.91
2023-04-02T10:53:58.531Z,97642.88
2023-04-02T10:56:24.981Z,97645.19
2023-04-02T10:59:03.968Z,97651.31
2023-04-02T11:01:30.469Z,97656.41
2023-04-02T11:04:00.448Z,97666.16
2023-04-02T11:06:30.195Z,97664.16
2023-04-02T11:09:04.971Z,97668.50
2023-04-02T11:11:36.581Z,97661.72
2023-04-02T11:14:21.992Z,97667.88
2023-04-02T11:16:49.021Z,97670.09
2023-04-02T11:19:15.807Z,97675.59
2023-04-02T11:22:01.301Z,97678.56
2023-04-02T11:24:30.008Z,97688.38
2023-04-02T11:27:11.407Z,97679.91
2023-04-02T11:30:07.606Z,97687.91
2023-04-02T11:32:45.234Z,97692.22
2023-04-02T11:35:31.714Z,97698.81
2023-04-02T11:38:04.198Z,97707.13
2023-04-02T11:40:44.599Z,97716.06
2023-04-02T11:43:33.089Z,97719.00
2023-04-02T11:46:18.569Z,97717.53
2023-04-02T11:48:45.290Z,97725.81
2023-04-02T11:51:22.260Z,97719.88
2023-04-02T11:53:53.830Z,97731.75
2023-04-02T11:56:32.140Z,97723.50
2023-04-02T11:59:05.126Z,97722.28
2023-04-02T12:02:06.031Z,97719.66
2023-04-02T12:05:04.288Z,97731.88
2023-04-02T12:07:53.305Z,97726.97
2023-04-02T12:10:32.429Z,97733.97
2023-04-02T12:12:59.033Z,97736.28
2023-04-02T12:15:48.811Z,97742.09
2023-04-02T12:18:21.641Z,97751.19
2023-04-02T12:20:51.968Z,97762.00
2023-04-02T12:23:20.219Z,97759.63
2023-04-02T12:25:58.688Z,97769.63
2023-04-02T12:28:28.646Z,97769.44
2023-04-02T12:31:10.139Z,97768.28
2023-04-02T12:33:37.604Z,97778.59
2023-04-02T12:36:09.917Z,97782.38
2023-04-02T12:38:55.397Z,97779.84
2023-04-02T12:41:24.413Z,97785.72
2023-04-02T12:44:01.669Z,97794.47
2023-04-02T12:46:28.773Z,97789.72
2023-04-02T12:48:58.126Z,97800.31
2023-04-02T12:51:25.800Z,97801.50
2023-04-02T12:53:53.828Z,97802.75
2023-04-02T12:56:24.169Z,97803.63
2023-04-02T12:59:30.691Z,97810.41
2023-04-02T13:02:01.488Z,97809.13
2023-04-02T13:04:28.069Z,97806.66
2023-04-02T13:06:58.388Z,97814.47
2023-04-02T13:09:48.205Z,97821.56
2023-04-02T13:12:37.372Z,97816.19
2023-04-02T13:15:08.014Z,97830.81
2023-04-02T13:17:45.617Z,97820.59
2023-04-02T13:20:41.876Z,97826.09
2023-04-02T13:23:27.237Z,97826.66
2023-04-02T13:25:53.762Z,97835.06
2023-04-02T13:28:20.461Z,97835.72
2023-04-02T13:30:47.074Z,97841.75
2023-04-02T13:33:14.262Z,97842.06
2023-04-02T13:35:41.094Z,97839.88
2023-04-02T13:38:08.605Z,97847.09
2023-04-02T13:40:36.111Z,97847.75
2023-04-02T13:43:03.673Z,97857.44
2023-04-02T13:45:35.004Z,97843.53
2023-04-02T13:48:01.924Z,97847.38
2023-04-02T13:50:29.876Z,97861.81
2023-04-02T13:52:58.116Z,97860.69
2023-04-02T13:55:26.392Z,97854.94
2023-04-02T13:57:52.939Z,97870.25
2023-04-02T14:00:20.948Z,97874.72
2023-04-02T14:02:51.039Z,97880.22
2023-04-02T14:05:30.604Z,97882.56
2023-04-02T14:08:10.694Z,97899.06
2023-04-02T14:11:17.080Z,97899.75
2023-04-02T14:13:56.745Z,97897.94
2023-04-02T14:16:42.341Z,97902.75
2023-04-02T14:19:33.318Z,97905.34
2023-04-02T14:22:18.430Z,97914.47
2023-04-02T14:24:47.509Z,97916.28
2023-04-02T14:27:22.989Z,97916.81
2023-04-02T14:29:52.227Z,97926.53
2023-04-02T14:32:24.605Z,97930.25
2023-04-02T14:35:15.321Z,97929.59
2023-04-02T14:38:11.495Z,97932.97
2023-04-02T14:40:59.633Z,97930.81
2023-04-02T14:43:44.235Z,97941.72
2023-04-02T14:46:10.849Z,97943.44
2023-04-02T14:48:46.198Z,97944.03
2023-04-02T14:51:16.110Z,97944.22
2023-04-02T14:54:16.074Z,97952.38
2023-04-02T14:56:49.836Z,97949.47
2023-04-02T14:59:31.515Z,97961.97
2023-04-02T15:02:03.995Z,97962.50
2023-04-02T15:04:37.335Z,97966.06
2023-04-02T15:07:07.716Z,97965.88
2023-04-02T15:09:38.079Z,97967.28
2023-04-02T15:12:09.916Z,97973.41
2023-04-02T15:14:45.647Z,97969.84
2023-04-02T15:17:12.260Z,97975.66
2023-04-02T15:19:38.766Z,97981.53
2023-04-02T15:22:26.484Z,97984.31
2023-04-02T15:25:07.915Z,97985.88
2023-04-02T15:27:52.046Z,97984.34
2023-04-02T15:30:30.592Z,97984.03
2023-04-02T15:32:59.185Z,97990.28
2023-04-02T15:35:54.538Z,97998.03
2023-04-02T15:38:22.746Z,97997.56
2023-04-02T15:41:14.085Z,98002.84
2023-04-02T15:43:54.693Z,98008.22
2023-04-02T15:46:57.001Z,98014.69
2023-04-02T15:49:51.540Z,98019.28
2023-04-02T15:52:42.917Z,98032.78
2023-04-02T15:55:27.970Z,98028.47
2023-04-02T15:58:24.801Z,98030.69
2023-04-02T16:01:08.421Z,98033.59
2023-04-02T16:03:44.135Z,98031.94
2023-04-02T16:06:25.551Z,98034.16
2023-04-02T16:09:13.900Z,98040.41
2023-04-02T16:11:40.537Z,98035.97
2023-04-02T16:14:25.986Z,98031.09
2023-04-02T16:16:52.769Z,98046.94
2023-04-02T16:19:33.689Z,98053.47
2023-04-02T16:22:21.629Z,98050.84
2023-04-02T16:24:49.966Z,98053.91
2023-04-02T16:27:38.531Z,98059.19
2023-04-02T16:30:34.576Z,98061.97
2023-04-02T16:33:10.045Z,98067.53
2023-04-02T16:35:54.134Z,98082.09
2023-04-02T16:38:20.740Z,98080.44
2023-04-02T16:41:07.733Z,98092.53
2023-04-02T16:43:58.405Z,98110.59
2023-04-02T16:46:39.886Z,98114.50
2023-04-02T16:49:20.224Z,98111.38
2023-04-02T16:51:49.448Z,98116.63
2023-04-02T16:54:19.216Z,98127.56
2023-04-02T16:57:07.086Z,98132.09
2023-04-02T17:00:05.999Z,98142.56
2023-04-02T17:02:54.092Z,98148.53
2023-04-02T17:05:25.754Z,98155.41
2023-04-02T17:08:01.826Z,98161.66
2023-04-02T17:10:30.728Z,98173.75
2023-04-02T17:13:03.639Z,98178.00
2023-04-02T17:15:38.001Z,98173.94
2023-04-02T17:18:19.811Z,98179.38
2023-04-02T17:20:47.283Z,98195.34
2023-04-02T17:23:14.128Z,98192.69
2023-04-02T17:25:56.381Z,98196.66
2023-04-02T17:28:26.154Z,98197.63
2023-04-02T17:30:55.748Z,98207.59
2023-04-02T17:33:25.088Z,98219.66
2023-04-02T17:35:59.763Z,98215.63
2023-04-02T17:38:48.915Z,98223.66
2023-04-02T17:41:40.821Z,98230.94
2023-04-02T17:44:16.507Z,98232.75
2023-04-02T17:46:51.962Z,98241.53
2023-04-02T17:49:45.817Z,98240.69
2023-04-02T17:52:36.399Z,98257.97
2023-04-02T17:55:21.052Z,98274.03
2023-04-02T17:57:51.026Z,98267.09
2023-04-02T18:00:20.647Z,98272.09
2023-04-02T18:02:57.934Z,98274.72
2023-04-02T18:05:38.785Z,98267.78
2023-04-02T18:08:08.595Z,98281.31
2023-04-02T18:10:54.314Z,98291.72
2023-04-02T18:13:49.798Z,98305.84
2023-04-02T18:16:25.827Z,98320.22
2023-04-02T18:19:24.004Z,98318.75
2023-04-02T18:22:12.536Z,98315.41
2023-04-02T18:25:25.015Z,98322.84
2023-04-02T18:27:58.264Z,98313.13
2023-04-02T18:30:54.665Z,98330.00
2023-04-02T18:33:46.049Z,98325.81
2023-04-02T18:36:37.346Z,98330.72
2023-04-02T18:39:10.333Z,98330.94
2023-04-02T18:41:52.524Z,98331.66
2023-04-02T18:44:46.512Z,98349.59
2023-04-02T18:47:36.828Z,98354.03
2023-04-02T18:50:16.482Z,98357.63
2023-04-02T18:52:43.084Z,98352.00
2023-04-02T18:55:17.618Z,98363.47
2023-04-02T18:57:45.268Z,98366.13
2023-04-02T19:00:30.792Z,98370.91
2023-04-02T19:03:02.406Z,98373.63
2023-04-02T19:05:35.189Z,98380.00
2023-04-02T19:08:24.849Z,98385.75
2023-04-02T19:10:53.703Z,98390.06
2023-04-02T19:13:20.365Z,98399.38
2023-04-02T19:16:01.954Z,98394.81
2023-04-02T19:18:36.595Z,98405.47
2023-04-02T19:21:38.364Z,98408.22
2023-04-02T19:24:17.328Z,98408.09
2023-04-02T19:26:47.637Z,98412.63
2023-04-02T19:29:21.278Z,98406.31
2023-04-02T19:31:52.291Z,98410.75
2023-04-02T19:34:39.032Z,98417.06
2023-04-02T19:37:16.832Z,98416.84
2023-04-02T19:39:55.393Z,98420.19
2023-04-02T19:42:49.333Z,98430.72
2023-04-02T19:45:28.701Z,98414.94
2023-04-02T19:47:56.106Z,98427.38
2023-04-02T19:50:22.738Z,98425.91
2023-04-02T19:52:49.232Z,98424.25
2023-04-02T19:55:15.850Z,98419.59
2023-04-02T19:57:42.381Z,98428.56
2023-04-02T20:00:12.113Z,98439.81
2023-04-02T20:02:38.752Z,98441.38
2023-04-02T20:05:05.890Z,98444.84
2023-04-02T20:07:32.327Z,98447.72
2023-04-02T20:09:58.855Z,98453.69
2023-04-02T20:12:25.534Z,98457.28
2023-04-02T20:14:52.002Z,98452.63
2023-04-02T20:17:18.459Z,98455.38
2023-04-02T20:19:44.903Z,98451.78
2023-04-02T20:22:11.361Z,98457.28
2023-04-02T20:24:37.877Z,98457.28
2023-04-02T20:27:04.360Z,98451.78
2023-04-02T20:29:32.152Z,98464.13
2023-04-02T20:31:58.784Z,98470.34
2023-04-02T20:34:25.915Z,98472.84
2023-04-02T20:36:53.583Z,98469.28
2023-04-02T20:39:21.473Z,98482.66
2023-04-02T20:41:48.158Z,98481.94
2023-04-02T20:44:14.646Z,98485.09
2023-04-02T20:46:41.658Z,98495.81
2023-04-02T20:49:08.180Z,98497.50
2023-04-02T20:51:34.647Z,98502.78
2023-04-02T20:54:01.354Z,98512.47
2023-04-02T20:56:27.922Z,98511.84
2023-04-02T20:58:54.450Z,98510.03
2023-04-02T21:01:25.986Z,98520.69
2023-04-02T21:03:59.703Z,98525.13
2023-04-02T21:06:27.796Z,98532.06
2023-04-02T21:08:54.269Z,98532.19
2023-04-02T21:11:22.368Z,98538.41
2023-04-02T21:13:49.520Z,98538.41
2023-04-02T21:16:17.681Z,98543.88
2023-04-02T21:18:44.241Z,98537.78
2023-04-02T21:21:13.551Z,98545.53
2023-04-02T21:23:40.471Z,98540.28
2023-04-02T21:26:07.210Z,98536.47
2023-04-02T21:28:34.391Z,98542.59
2023-04-02T21:31:21.711Z,98538.41
2023-04-02T21:33:52.903Z,98547.34
2023-04-02T21:36:25.562Z,98551.13
2023-04-02T21:38:56.505Z,98549.34
2023-04-02T21:41:30.273Z,98546.00
2023-04-02T21:43:57.472Z,98560.31
2023-04-02T21:46:26.042Z,98546.44
2023-04-02T21:48:53.335Z,98545.59
2023-04-02T21:51:22.193Z,98556.72
2023-04-02T21:53:49.188Z,98545.81
2023-04-02T21:56:16.635Z,98545.16
2023-04-02T21:58:43.721Z,98546.88
2023-04-02T22:01:16.841Z,98536.09
2023-04-02T22:03:47.168Z,98537.19
2023-04-02T22:06:15.820Z,98536.34
2023-04-02T22:08:42.980Z,98538.97
2023-04-02T22:11:33.391Z,98544.97
2023-04-02T22:13:59.969Z,98545.09
2023-04-02T22:16:27.837Z,98556.44
2023-04-02T22:18:55.711Z,98553.19
2023-04-02T22:21:22.376Z,98556.66
2023-04-02T22:23:48.910Z,98574.03
2023-04-02T22:26:16.264Z,98563.06
2023-04-02T22:28:42.905Z,98562.16
2023-04-02T22:31:12.585Z,98570.03
2023-04-02T22:33:39.158Z,98573.41
2023-04-02T22:36:06.062Z,98575.31
2023-04-02T22:38:32.737Z,98578.66
2023-04-02T22:41:07.616Z,98575.06
2023-04-02T22:43:34.560Z,98574.78
2023-04-02T22:46:01.326Z,98575.50
2023-04-02T22:48:27.834Z,98580.78
2023-04-02T22:50:54.365Z,98576.53
2023-04-02T22:53:21.075Z,98561.31
2023-04-02T22:55:47.667Z,98566.88
2023-04-02T22:58:14.186Z,98571.72
2023-04-02T23:00:41.073Z,98571.84
2023-04-02T23:03:07.550Z,98575.19
2023-04-02T23:05:34.004Z,98569.22
2023-04-02T23:08:00.501Z,98579.94
2023-04-02T23:10:30.559Z,98581.63
2023-04-02T23:12:57.489Z,98594.03
2023-04-02T23:15:23.958Z,98583.31
2023-04-02T23:17:50.498Z,98593.84
2023-04-02T23:20:17.114Z,98594.88
2023-04-02T23:22:43.627Z,98592.88
2023-04-02T23:25:10.200Z,98599.28
2023-04-02T23:27:36.845Z,98595.72
2023-04-02T23:30:03.951Z,98586.91
2023-04-02T23:32:30.499Z,98576.56
2023-04-02T23:34:56.986Z,98579.84
2023-04-02T23:37:23.458Z,98582.88
2023-04-02T23:39:49.978Z,98580.56
2023-04-02T23:42:17.442Z,98577.94
2023-04-02T23:44:43.906Z,98576.25
2023-04-02T23:47:10.733Z,98575.41
2023-04-02T23:49:37.230Z,98572.16
2023-04-02T23:52:03.748Z,98573.84
2023-04-02T23:54:30.310Z,98573.00
2023-04-02T23:56:56.831Z,98577.41
2023-04-02T23:59:23.343Z,98577.19
